sensor_id;sensor_type;location;lat;lon;timestamp;temperature;humidity
22674;DHT22;11504;43.334;21.918;2022-10-03T00:01:02;14.2;100.0
22674;DHT22;11504;43.334;21.918;2022-10-03T00:06:12;14.2;100.0
22674;DHT22;11504;43.334;21.918;2022-10-03T00:11:18;14.2;100.0
22674;DHT22;11504;43.334;21.918;2022-10-03T00:16:22;14.1;100.0
22674;DHT22;11504;43.334;21.918;2022-10-03T00:21:40;14.1;100.0
22674;DHT22;11504;43.334;21.918;2022-10-03T00:26:52;14.1;100.0
22674;DHT22;11504;43.334;21.918;2022-10-03T00:32:02;14.1;100.0
22674;DHT22;11504;43.334;21.918;2022-10-03T00:37:19;14.1;100.0
22674;DHT22;11504;43.334;21.918;2022-10-03T00:45:47;14.1;100.0
22674;DHT22;11504;43.334;21.918;2022-10-03T00:51:16;13.9;100.0
22674;DHT22;11504;43.334;21.918;2022-10-03T00:56:39;13.7;100.0
22674;DHT22;11504;43.334;21.918;2022-10-03T01:01:43;13.7;100.0
22674;DHT22;11504;43.334;21.918;2022-10-03T01:06:46;13.4;100.0
22674;DHT22;11504;43.334;21.918;2022-10-03T01:12:45;13.4;100.0
22674;DHT22;11504;43.334;21.918;2022-10-03T01:18:36;13.2;100.0
22674;DHT22;11504;43.334;21.918;2022-10-03T01:24:48;13.2;100.0
22674;DHT22;11504;43.334;21.918;2022-10-03T01:29:53;13.2;100.0
22674;DHT22;11504;43.334;21.918;2022-10-03T01:35:09;13.2;100.0
22674;DHT22;11504;43.334;21.918;2022-10-03T01:40:29;13.3;100.0
22674;DHT22;11504;43.334;21.918;2022-10-03T01:45:47;13.3;100.0
22674;DHT22;11504;43.334;21.918;2022-10-03T01:51:10;13.3;100.0
22674;DHT22;11504;43.334;21.918;2022-10-03T01:56:28;13.3;100.0
22674;DHT22;11504;43.334;21.918;2022-10-03T02:01:38;13.3;100.0
22674;DHT22;11504;43.334;21.918;2022-10-03T02:06:58;13.3;100.0
22674;DHT22;11504;43.334;21.918;2022-10-03T02:12:09;13.3;100.0
22674;DHT22;11504;43.334;21.918;2022-10-03T02:17:05;13.3;100.0
22674;DHT22;11504;43.334;21.918;2022-10-03T02:21:54;13.3;100.0
22674;DHT22;11504;43.334;21.918;2022-10-03T02:28:47;13.4;100.0
22674;DHT22;11504;43.334;21.918;2022-10-03T02:34:24;13.4;100.0
22674;DHT22;11504;43.334;21.918;2022-10-03T02:43:13;13.4;100.0
22674;DHT22;11504;43.334;21.918;2022-10-03T02:49:22;13.4;100.0
22674;DHT22;11504;43.334;21.918;2022-10-03T02:54:56;13.4;100.0
22674;DHT22;11504;43.334;21.918;2022-10-03T03:00:11;13.5;100.0
22674;DHT22;11504;43.334;21.918;2022-10-03T03:05:58;13.5;100.0
22674;DHT22;11504;43.334;21.918;2022-10-03T03:13:57;13.5;100.0
22674;DHT22;11504;43.334;21.918;2022-10-03T03:19:18;13.5;100.0
22674;DHT22;11504;43.334;21.918;2022-10-03T03:24:51;13.5;100.0
22674;DHT22;11504;43.334;21.918;2022-10-03T03:29:57;13.6;100.0
22674;DHT22;11504;43.334;21.918;2022-10-03T03:35:21;13.6;100.0
22674;DHT22;11504;43.334;21.918;2022-10-03T03:40:44;13.8;100.0
22674;DHT22;11504;43.334;21.918;2022-10-03T03:46:19;13.8;100.0
22674;DHT22;11504;43.334;21.918;2022-10-03T03:51:47;13.8;100.0
22674;DHT22;11504;43.334;21.918;2022-10-03T03:57:46;13.8;100.0
22674;DHT22;11504;43.334;21.918;2022-10-03T04:03:39;13.8;100.0
22674;DHT22;11504;43.334;21.918;2022-10-03T04:09:36;13.8;100.0
22674;DHT22;11504;43.334;21.918;2022-10-03T04:17:47;13.8;100.0
22674;DHT22;11504;43.334;21.918;2022-10-03T04:23:26;13.8;100.0
22674;DHT22;11504;43.334;21.918;2022-10-03T04:29:17;13.8;100.0
22674;DHT22;11504;43.334;21.918;2022-10-03T04:34:43;13.8;100.0
22674;DHT22;11504;43.334;21.918;2022-10-03T04:39:55;13.9;100.0
22674;DHT22;11504;43.334;21.918;2022-10-03T04:45:23;13.9;100.0
22674;DHT22;11504;43.334;21.918;2022-10-03T04:50:38;14.0;100.0
22674;DHT22;11504;43.334;21.918;2022-10-03T04:55:42;14.0;100.0
22674;DHT22;11504;43.334;21.918;2022-10-03T05:00:30;14.0;100.0
22674;DHT22;11504;43.334;21.918;2022-10-03T05:05:47;14.0;100.0
22674;DHT22;11504;43.334;21.918;2022-10-03T05:11:06;14.1;100.0
22674;DHT22;11504;43.334;21.918;2022-10-03T05:16:16;14.1;100.0
22674;DHT22;11504;43.334;21.918;2022-10-03T05:21:11;14.2;100.0
22674;DHT22;11504;43.334;21.918;2022-10-03T05:26:17;14.2;100.0
22674;DHT22;11504;43.334;21.918;2022-10-03T05:31:30;14.3;100.0
22674;DHT22;11504;43.334;21.918;2022-10-03T05:36:52;14.4;100.0
22674;DHT22;11504;43.334;21.918;2022-10-03T05:41:37;14.4;100.0
22674;DHT22;11504;43.334;21.918;2022-10-03T05:46:56;14.3;100.0
22674;DHT22;11504;43.334;21.918;2022-10-03T05:52:37;14.3;100.0
22674;DHT22;11504;43.334;21.918;2022-10-03T05:58:30;14.2;100.0
22674;DHT22;11504;43.334;21.918;2022-10-03T06:06:50;14.2;100.0
22674;DHT22;11504;43.334;21.918;2022-10-03T06:12:18;14.2;100.0
22674;DHT22;11504;43.334;21.918;2022-10-03T06:17:52;14.2;100.0
22674;DHT22;11504;43.334;21.918;2022-10-03T06:23:30;14.2;100.0
22674;DHT22;11504;43.334;21.918;2022-10-03T06:29:45;14.2;100.0
22674;DHT22;11504;43.334;21.918;2022-10-03T06:36:11;14.2;100.0
22674;DHT22;11504;43.334;21.918;2022-10-03T06:43:45;14.1;100.0
22674;DHT22;11504;43.334;21.918;2022-10-03T06:50:14;14.2;100.0
22674;DHT22;11504;43.334;21.918;2022-10-03T06:57:01;14.3;100.0
22674;DHT22;11504;43.334;21.918;2022-10-03T07:03:19;14.3;100.0
22674;DHT22;11504;43.334;21.918;2022-10-03T07:11:21;14.4;100.0
22674;DHT22;11504;43.334;21.918;2022-10-03T07:17:57;14.6;100.0
22674;DHT22;11504;43.334;21.918;2022-10-03T07:28:37;14.8;100.0
22674;DHT22;11504;43.334;21.918;2022-10-03T07:36:07;14.8;100.0
22674;DHT22;11504;43.334;21.918;2022-10-03T07:41:46;15.0;100.0
22674;DHT22;11504;43.334;21.918;2022-10-03T07:48:51;15.0;100.0
22674;DHT22;11504;43.334;21.918;2022-10-03T07:55:20;15.0;100.0
22674;DHT22;11504;43.334;21.918;2022-10-03T08:30:31;16.0;100.0
22674;DHT22;11504;43.334;21.918;2022-10-03T08:38:31;16.0;100.0
22674;DHT22;11504;43.334;21.918;2022-10-03T08:44:31;16.0;100.0
22674;DHT22;11504;43.334;21.918;2022-10-03T08:50:16;15.8;100.0
22674;DHT22;11504;43.334;21.918;2022-10-03T08:55:47;15.8;100.0
22674;DHT22;11504;43.334;21.918;2022-10-03T09:01:16;15.6;100.0
22674;DHT22;11504;43.334;21.918;2022-10-03T09:07:15;15.8;100.0
22674;DHT22;11504;43.334;21.918;2022-10-03T09:15:46;15.8;100.0
22674;DHT22;11504;43.334;21.918;2022-10-03T09:22:53;16.0;100.0
22674;DHT22;11504;43.334;21.918;2022-10-03T09:30:15;17.0;100.0
22674;DHT22;11504;43.334;21.918;2022-10-03T09:36:11;17.0;100.0
22674;DHT22;11504;43.334;21.918;2022-10-03T09:43:43;17.9;100.0
22674;DHT22;11504;43.334;21.918;2022-10-03T09:50:07;18.2;100.0
22674;DHT22;11504;43.334;21.918;2022-10-03T09:58:06;18.6;100.0
22674;DHT22;11504;43.334;21.918;2022-10-03T10:07:05;18.6;100.0
22674;DHT22;11504;43.334;21.918;2022-10-03T10:14:45;19.2;100.0
22674;DHT22;11504;43.334;21.918;2022-10-03T10:20:10;19.8;100.0
22674;DHT22;11504;43.334;21.918;2022-10-03T10:26:07;19.8;100.0
22674;DHT22;11504;43.334;21.918;2022-10-03T10:32:06;19.0;100.0
22674;DHT22;11504;43.334;21.918;2022-10-03T10:38:01;18.2;100.0
22674;DHT22;11504;43.334;21.918;2022-10-03T10:44:19;18.2;100.0
22674;DHT22;11504;43.334;21.918;2022-10-03T10:54:20;17.7;100.0
22674;DHT22;11504;43.334;21.918;2022-10-03T11:08:45;17.8;100.0
22674;DHT22;11504;43.334;21.918;2022-10-03T11:16:38;17.8;100.0
22674;DHT22;11504;43.334;21.918;2022-10-03T11:27:23;18.5;100.0
22674;DHT22;11504;43.334;21.918;2022-10-03T11:38:33;18.5;100.0
22674;DHT22;11504;43.334;21.918;2022-10-03T11:44:20;18.5;100.0
22674;DHT22;11504;43.334;21.918;2022-10-03T11:50:14;18.8;100.0
22674;DHT22;11504;43.334;21.918;2022-10-03T11:55:34;18.8;100.0
22674;DHT22;11504;43.334;21.918;2022-10-03T12:00:21;19.0;100.0
22674;DHT22;11504;43.334;21.918;2022-10-03T12:05:26;19.0;100.0
22674;DHT22;11504;43.334;21.918;2022-10-03T12:10:54;19.0;100.0
22674;DHT22;11504;43.334;21.918;2022-10-03T12:15:53;19.0;100.0
22674;DHT22;11504;43.334;21.918;2022-10-03T12:21:09;19.0;100.0
22674;DHT22;11504;43.334;21.918;2022-10-03T12:25:52;19.0;100.0
22674;DHT22;11504;43.334;21.918;2022-10-03T12:30:49;19.2;100.0
22674;DHT22;11504;43.334;21.918;2022-10-03T12:35:57;19.2;100.0
22674;DHT22;11504;43.334;21.918;2022-10-03T12:41:03;19.5;100.0
22674;DHT22;11504;43.334;21.918;2022-10-03T12:46:02;19.5;100.0
22674;DHT22;11504;43.334;21.918;2022-10-03T12:51:01;19.6;100.0
22674;DHT22;11504;43.334;21.918;2022-10-03T12:56:13;19.6;100.0
22674;DHT22;11504;43.334;21.918;2022-10-03T13:01:24;19.6;100.0
22674;DHT22;11504;43.334;21.918;2022-10-03T13:06:45;19.6;100.0
22674;DHT22;11504;43.334;21.918;2022-10-03T13:12:02;18.9;100.0
22674;DHT22;11504;43.334;21.918;2022-10-03T13:17:16;18.2;100.0
22674;DHT22;11504;43.334;21.918;2022-10-03T13:22:34;18.2;100.0
22674;DHT22;11504;43.334;21.918;2022-10-03T13:27:41;18.4;100.0
22674;DHT22;11504;43.334;21.918;2022-10-03T13:32:35;18.4;100.0
22674;DHT22;11504;43.334;21.918;2022-10-03T13:37:35;18.5;100.0
22674;DHT22;11504;43.334;21.918;2022-10-03T13:42:42;18.5;100.0
22674;DHT22;11504;43.334;21.918;2022-10-03T13:47:47;18.6;100.0
22674;DHT22;11504;43.334;21.918;2022-10-03T13:52:47;18.6;100.0
22674;DHT22;11504;43.334;21.918;2022-10-03T13:57:45;18.6;100.0
22674;DHT22;11504;43.334;21.918;2022-10-03T14:03:24;18.6;100.0
22674;DHT22;11504;43.334;21.918;2022-10-03T14:11:23;18.8;100.0
22674;DHT22;11504;43.334;21.918;2022-10-03T14:16:28;18.8;100.0
22674;DHT22;11504;43.334;21.918;2022-10-03T14:21:54;18.9;100.0
22674;DHT22;11504;43.334;21.918;2022-10-03T14:27:30;19.0;100.0
22674;DHT22;11504;43.334;21.918;2022-10-03T14:32:46;19.0;100.0
22674;DHT22;11504;43.334;21.918;2022-10-03T14:37:56;19.2;100.0
22674;DHT22;11504;43.334;21.918;2022-10-03T14:43:32;19.2;100.0
22674;DHT22;11504;43.334;21.918;2022-10-03T14:48:37;19.0;100.0
22674;DHT22;11504;43.334;21.918;2022-10-03T14:53:28;19.0;100.0
22674;DHT22;11504;43.334;21.918;2022-10-03T14:58:21;18.8;100.0
22674;DHT22;11504;43.334;21.918;2022-10-03T15:03:27;18.8;100.0
22674;DHT22;11504;43.334;21.918;2022-10-03T15:08:16;18.2;100.0
22674;DHT22;11504;43.334;21.918;2022-10-03T15:13:07;18.2;100.0
22674;DHT22;11504;43.334;21.918;2022-10-03T15:17:52;17.7;100.0
22674;DHT22;11504;43.334;21.918;2022-10-03T15:22:36;17.7;100.0
22674;DHT22;11504;43.334;21.918;2022-10-03T15:27:22;17.4;100.0
22674;DHT22;11504;43.334;21.918;2022-10-03T15:32:18;17.4;100.0
22674;DHT22;11504;43.334;21.918;2022-10-03T15:37:15;17.2;100.0
22674;DHT22;11504;43.334;21.918;2022-10-03T15:42:18;17.2;100.0
22674;DHT22;11504;43.334;21.918;2022-10-03T15:47:07;17.0;100.0
22674;DHT22;11504;43.334;21.918;2022-10-03T15:51:48;17.0;100.0
22674;DHT22;11504;43.334;21.918;2022-10-03T15:56:40;17.0;100.0
22674;DHT22;11504;43.334;21.918;2022-10-03T16:01:28;16.7;100.0
22674;DHT22;11504;43.334;21.918;2022-10-03T16:06:20;16.7;100.0
22674;DHT22;11504;43.334;21.918;2022-10-03T16:11:18;16.5;100.0
22674;DHT22;11504;43.334;21.918;2022-10-03T16:16:16;16.5;100.0
22674;DHT22;11504;43.334;21.918;2022-10-03T16:21:03;16.3;100.0
22674;DHT22;11504;43.334;21.918;2022-10-03T16:25:53;16.3;100.0
22674;DHT22;11504;43.334;21.918;2022-10-03T16:30:55;16.3;100.0
22674;DHT22;11504;43.334;21.918;2022-10-03T16:35:47;16.3;100.0
22674;DHT22;11504;43.334;21.918;2022-10-03T16:50:23;15.9;100.0
22674;DHT22;11504;43.334;21.918;2022-10-03T16:55:20;15.9;100.0
22674;DHT22;11504;43.334;21.918;2022-10-03T17:00:02;15.9;100.0
22674;DHT22;11504;43.334;21.918;2022-10-03T17:05:00;15.9;100.0
22674;DHT22;11504;43.334;21.918;2022-10-03T17:09:53;15.8;100.0
22674;DHT22;11504;43.334;21.918;2022-10-03T17:14:41;15.8;100.0
22674;DHT22;11504;43.334;21.918;2022-10-03T17:19:45;15.8;100.0
22674;DHT22;11504;43.334;21.918;2022-10-03T17:25:00;15.8;100.0
22674;DHT22;11504;43.334;21.918;2022-10-03T17:30:04;15.8;100.0
22674;DHT22;11504;43.334;21.918;2022-10-03T17:35:25;15.8;100.0
22674;DHT22;11504;43.334;21.918;2022-10-03T17:40:37;15.8;100.0
22674;DHT22;11504;43.334;21.918;2022-10-03T17:45:42;15.8;100.0
22674;DHT22;11504;43.334;21.918;2022-10-03T17:50:34;15.6;100.0
22674;DHT22;11504;43.334;21.918;2022-10-03T17:55:29;15.6;100.0
22674;DHT22;11504;43.334;21.918;2022-10-03T18:00:22;15.4;100.0
22674;DHT22;11504;43.334;21.918;2022-10-03T18:05:19;15.4;100.0
22674;DHT22;11504;43.334;21.918;2022-10-03T18:09:58;15.2;100.0
22674;DHT22;11504;43.334;21.918;2022-10-03T18:15:55;15.2;100.0
22674;DHT22;11504;43.334;21.918;2022-10-03T18:20:54;15.1;100.0
22674;DHT22;11504;43.334;21.918;2022-10-03T18:26:00;15.1;100.0
22674;DHT22;11504;43.334;21.918;2022-10-03T18:30:56;15.1;100.0
22674;DHT22;11504;43.334;21.918;2022-10-03T18:35:37;15.1;100.0
22674;DHT22;11504;43.334;21.918;2022-10-03T18:50:02;14.4;100.0
22674;DHT22;11504;43.334;21.918;2022-10-03T18:55:02;14.4;100.0
22674;DHT22;11504;43.334;21.918;2022-10-03T19:00:03;14.4;100.0
22674;DHT22;11504;43.334;21.918;2022-10-03T19:04:54;14.4;100.0
22674;DHT22;11504;43.334;21.918;2022-10-03T19:10:26;14.4;100.0
22674;DHT22;11504;43.334;21.918;2022-10-03T19:15:40;14.4;100.0
22674;DHT22;11504;43.334;21.918;2022-10-03T19:20:48;14.3;100.0
22674;DHT22;11504;43.334;21.918;2022-10-03T19:25:32;14.3;100.0
22674;DHT22;11504;43.334;21.918;2022-10-03T19:30:25;14.3;100.0
22674;DHT22;11504;43.334;21.918;2022-10-03T19:35:16;14.3;100.0
22674;DHT22;11504;43.334;21.918;2022-10-03T19:39:58;14.3;100.0
22674;DHT22;11504;43.334;21.918;2022-10-03T19:44:39;14.3;100.0
22674;DHT22;11504;43.334;21.918;2022-10-03T19:49:42;14.2;100.0
22674;DHT22;11504;43.334;21.918;2022-10-03T19:54:45;14.2;100.0
22674;DHT22;11504;43.334;21.918;2022-10-03T19:59:50;14.0;100.0
22674;DHT22;11504;43.334;21.918;2022-10-03T20:04:36;14.0;100.0
22674;DHT22;11504;43.334;21.918;2022-10-03T20:09:27;13.8;100.0
22674;DHT22;11504;43.334;21.918;2022-10-03T20:14:19;13.8;100.0
22674;DHT22;11504;43.334;21.918;2022-10-03T20:19:10;13.7;100.0
22674;DHT22;11504;43.334;21.918;2022-10-03T20:23:51;13.7;100.0
22674;DHT22;11504;43.334;21.918;2022-10-03T20:29:17;13.6;100.0
22674;DHT22;11504;43.334;21.918;2022-10-03T20:34:13;13.6;100.0
22674;DHT22;11504;43.334;21.918;2022-10-03T20:39:17;13.6;100.0
22674;DHT22;11504;43.334;21.918;2022-10-03T20:44:19;13.6;100.0
22674;DHT22;11504;43.334;21.918;2022-10-03T20:49:29;13.6;100.0
22674;DHT22;11504;43.334;21.918;2022-10-03T20:54:17;13.6;100.0
22674;DHT22;11504;43.334;21.918;2022-10-03T20:59:02;13.6;100.0
22674;DHT22;11504;43.334;21.918;2022-10-03T21:04:15;13.6;100.0
22674;DHT22;11504;43.334;21.918;2022-10-03T21:09:01;13.6;100.0
22674;DHT22;11504;43.334;21.918;2022-10-03T21:13:55;13.6;100.0
22674;DHT22;11504;43.334;21.918;2022-10-03T21:18:44;13.5;100.0
22674;DHT22;11504;43.334;21.918;2022-10-03T21:23:27;13.5;100.0
22674;DHT22;11504;43.334;21.918;2022-10-03T21:28:23;13.2;100.0
22674;DHT22;11504;43.334;21.918;2022-10-03T21:33:18;13.2;100.0
22674;DHT22;11504;43.334;21.918;2022-10-03T21:38:28;12.9;100.0
22674;DHT22;11504;43.334;21.918;2022-10-03T21:43:45;12.9;100.0
22674;DHT22;11504;43.334;21.918;2022-10-03T21:49:04;12.8;100.0
22674;DHT22;11504;43.334;21.918;2022-10-03T21:54:43;12.8;100.0
22674;DHT22;11504;43.334;21.918;2022-10-03T22:00:11;12.8;100.0
22674;DHT22;11504;43.334;21.918;2022-10-03T22:05:11;12.8;100.0
22674;DHT22;11504;43.334;21.918;2022-10-03T22:10:18;12.8;100.0
22674;DHT22;11504;43.334;21.918;2022-10-03T22:15:26;12.8;100.0
22674;DHT22;11504;43.334;21.918;2022-10-03T22:20:22;12.9;100.0
22674;DHT22;11504;43.334;21.918;2022-10-03T22:25:40;12.9;100.0
22674;DHT22;11504;43.334;21.918;2022-10-03T22:31:18;13.0;100.0
22674;DHT22;11504;43.334;21.918;2022-10-03T22:36:12;13.0;100.0
22674;DHT22;11504;43.334;21.918;2022-10-03T22:40:51;13.0;100.0
22674;DHT22;11504;43.334;21.918;2022-10-03T22:45:50;13.0;100.0
22674;DHT22;11504;43.334;21.918;2022-10-03T22:50:41;13.0;100.0
22674;DHT22;11504;43.334;21.918;2022-10-03T22:55:26;13.0;100.0
22674;DHT22;11504;43.334;21.918;2022-10-03T23:10:00;12.8;100.0
22674;DHT22;11504;43.334;21.918;2022-10-03T23:14:51;12.8;100.0
22674;DHT22;11504;43.334;21.918;2022-10-03T23:19:59;12.8;100.0
22674;DHT22;11504;43.334;21.918;2022-10-03T23:24:53;12.8;100.0
22674;DHT22;11504;43.334;21.918;2022-10-03T23:29:31;12.8;100.0
22674;DHT22;11504;43.334;21.918;2022-10-03T23:34:08;12.8;100.0
22674;DHT22;11504;43.334;21.918;2022-10-03T23:38:59;12.7;100.0
22674;DHT22;11504;43.334;21.918;2022-10-03T23:43:49;12.7;100.0
22674;DHT22;11504;43.334;21.918;2022-10-03T23:48:48;12.6;100.0
22674;DHT22;11504;43.334;21.918;2022-10-03T23:53:38;12.6;100.0
22674;DHT22;11504;43.334;21.918;2022-10-03T23:58:28;12.5;100.0
